Accueil
METAR-TAF:

METAR-TAF

Aéroports :

Base aérienne de Wittmundhafen

Wittmund, Allemagne

latitude: 53-33N, longitude: 007-40E, altitude: 8 m

Observation

Le bulletin a été fait il y a 43 minutes, à 21:20 UTC
Vent 10 kt de sud
Température 8°C
Humidité 81%
Pression 1000 hPa
Visibilité: 8000 m

METAR: ETNT 262120Z AUTO 18010KT 8000 // ////// 08/05 Q1000 ///

Heure: 23:03 (22:03 UTC)

Prévision

Le bulletin a été fait il y a 7 heures et 50 minutes, à 14:13 UTC
Prévision valable du 26 à 15 UTC au 26 à 24 UTC
Vent 12 kt de sud/sud-ouest
Visibilité 10 km ou plus
Nuages épars à une hauteur de 2000 ft
Nuages épars à une hauteur de 4000 ft
Temporairement
du 26 à 15 UTC au 26 à 24 UTC
Vent 15 kt de sud/sud-ouest
Visibilité 10 km ou plus
Nuages fragmentés à une hauteur de 2000 ft
Nuages fragmentés à une hauteur de 4000 ft

TAF: ETNT 261413Z 2615/2624 21012KT 9999 NSW SCT020 SCT040 TEMPO 2615/2624 21015KT 9999 NSW BKN020 BKN040 BY ETGL

Observations et prévisions météorologiques de plus de 4000 aéroports (messages METAR et TAF).

Les stations disponibles sont représentées par des disques jaunes et rouges sur la carte.

Passer la souris dessus pour voir le nom de la station.

Cliquer dessus pour voir les observations et prévisions météorologiques.

Pour changer de carte: cliquez sur les boutons verts avec une croix noire pour zoomer, sur le bouton vert avec un tiret pour effectuer un zoom arrière, ou sur les flèches vertes pour les cartes adjacentes.


METAR-TAF: